Albany, California
Current Conditions -  °F | °C
As of 2:53 AM on Friday 24 Oct 2014 (Local Time) from KOAK Reporting Station
Few Clouds Few Clouds  
Wind Chill: 60°   Ceiling: Unl
Heat Index: 60°   Visibility: 10mi
Dew Point: 53°   Wind: 8mph
Humidity: 78%   Direction: 110°ESE
Pressure: 29.97"   Gusts: NA
Location:  37.89°N, 122.29°W
Report Text: KOAK 240953Z 11007KT 10SM FEW010 16/12 A2997 RMK AO2 SLP146 T01560117
Loading
Personal Weather Stations






























Interactive Weather Map
Tropical Storm Tracking
New forecast layout! Learn more

10-Day Weather Forecast

Advertisements
Track Severe Weather on mobile